Time;durP1;ratioP1;P1;durP2;ratioP2;P2;SDS_P1;SDS_P2;PMS_P1;PMS_P2;Temp;Humidity;BMP_temperature;BMP_pressure;BME280_temperature;BME280_humidity;BME280_pressure;Samples;Min_cycle;Max_cycle;Signal;HPM_P1;HPM_P2
2021/08/18 00:01:08;;;;;;;9.48;3.42;;;;;;;-145.01;100.00;64805.59;4993993;28;20043;-60
2021/08/18 00:03:33;;;;;;;9.27;4.07;;;;;;;-145.01;100.00;64805.59;4995699;28;20023;-60
2021/08/18 00:05:59;;;;;;;12.80;4.00;;;;;;;-145.01;100.00;64805.59;4995244;28;20042;-60
2021/08/18 00:08:24;;;;;;;9.68;3.80;;;;;;;-145.01;100.00;64805.59;4995382;28;20053;-59
2021/08/18 00:10:50;;;;;;;9.32;3.67;;;;;;;-145.01;100.00;64805.59;4994992;28;20559;-60
2021/08/18 00:13:16;;;;;;;14.05;3.92;;;;;;;-145.01;100.00;64805.59;4995488;28;20038;-60
2021/08/18 00:15:41;;;;;;;11.70;4.20;;;;;;;-145.01;100.00;64805.59;4995187;28;20076;-60
2021/08/18 00:18:07;;;;;;;11.40;4.43;;;;;;;-145.01;100.00;64805.59;4995350;28;20037;-60
2021/08/18 00:20:32;;;;;;;8.07;3.78;;;;;;;-145.01;100.00;64805.59;4995092;28;20046;-60
2021/08/18 00:22:58;;;;;;;10.95;4.40;;;;;;;-145.01;100.00;64805.59;4993931;28;20101;-60
2021/08/18 00:25:25;;;;;;;15.02;4.30;;;;;;;-145.01;100.00;64805.59;4994821;28;20534;-60
2021/08/18 00:27:51;;;;;;;12.10;4.57;;;;;;;-145.01;100.00;64805.59;4994195;28;20058;-60
2021/08/18 00:30:16;;;;;;;12.60;4.90;;;;;;;-145.01;100.00;64805.59;4994749;28;20181;-60
2021/08/18 00:32:42;;;;;;;7.47;3.88;;;;;;;-145.01;100.00;64805.59;4995141;28;20026;-60
2021/08/18 00:35:08;;;;;;;10.15;3.88;;;;;;;-145.01;100.00;64805.59;4994563;28;20034;-60
2021/08/18 00:37:33;;;;;;;8.10;3.85;;;;;;;-145.01;100.00;64805.59;4995089;28;20450;-60
2021/08/18 00:39:59;;;;;;;8.90;4.00;;;;;;;-145.01;100.00;64805.59;4995139;28;20026;-60
2021/08/18 00:42:24;;;;;;;13.18;4.75;;;;;;;-145.01;100.00;64805.59;4994426;28;20038;-60
2021/08/18 00:44:49;;;;;;;9.18;4.22;;;;;;;-145.01;100.00;64805.59;4994899;28;20022;-60
2021/08/18 00:47:15;;;;;;;12.60;4.63;;;;;;;-145.01;100.00;64805.59;4994284;28;20027;-60
2021/08/18 00:49:40;;;;;;;9.95;4.85;;;;;;;-145.01;100.00;64805.59;4994857;28;20030;-60
2021/08/18 00:52:06;;;;;;;12.10;4.75;;;;;;;-145.01;100.00;64805.59;4994405;28;20042;-60
2021/08/18 00:54:31;;;;;;;14.20;4.65;;;;;;;-145.01;100.00;64805.59;4994640;28;20360;-60
2021/08/18 00:56:57;;;;;;;17.30;5.28;;;;;;;-145.01;100.00;64805.59;4994398;28;20122;-60
2021/08/18 00:59:22;;;;;;;12.98;5.20;;;;;;;-145.01;100.00;64805.59;4994631;28;20354;-60
2021/08/18 01:01:48;;;;;;;9.43;5.43;;;;;;;-145.01;100.00;64805.59;4976738;28;20121;-60
2021/08/18 01:04:13;;;;;;;13.32;5.50;;;;;;;-145.01;100.00;64805.59;4994580;28;20027;-60
2021/08/18 01:06:40;;;;;;;13.52;5.55;;;;;;;-145.01;100.00;64805.59;4994187;28;20440;-59
2021/08/18 01:09:10;;;;;;;12.98;6.15;;;;;;;-145.01;100.00;64805.59;4994153;28;20552;-60
2021/08/18 01:11:39;;;;;;;14.38;5.50;;;;;;;-145.01;100.00;64805.59;4994001;28;20088;-59
2021/08/18 01:14:05;;;;;;;17.00;5.82;;;;;;;-145.01;100.00;64805.59;4994502;28;20038;-60
2021/08/18 01:16:37;;;;;;;15.95;5.90;;;;;;;-145.01;100.00;64805.59;4994170;28;20034;-59
2021/08/18 01:19:03;;;;;;;12.07;5.50;;;;;;;-145.01;100.00;64805.59;4994324;28;20057;-59
2021/08/18 01:21:29;;;;;;;11.95;5.43;;;;;;;-145.01;100.00;64805.59;4993248;28;20050;-60
2021/08/18 01:23:54;;;;;;;15.05;5.88;;;;;;;-145.01;100.00;64805.59;4994133;28;20096;-60
2021/08/18 01:26:20;;;;;;;15.30;5.10;;;;;;;-145.01;100.00;64805.59;4993654;28;20037;-59
2021/08/18 01:28:45;;;;;;;14.05;5.10;;;;;;;-145.01;100.00;64805.59;4994212;28;20018;-59
2021/08/18 01:31:11;;;;;;;16.95;6.88;;;;;;;-145.01;100.00;64805.59;4993792;28;20073;-60
2021/08/18 01:33:36;;;;;;;9.88;5.60;;;;;;;-145.01;100.00;64805.59;4994033;28;20401;-60
2021/08/18 01:36:02;;;;;;;12.77;6.25;;;;;;;-145.01;100.00;64805.59;4993557;28;20041;-60
2021/08/18 01:38:27;;;;;;;12.20;6.00;;;;;;;-145.01;100.00;64805.59;4994175;28;20026;-60
2021/08/18 01:40:54;;;;;;;14.88;6.03;;;;;;;-145.01;100.00;64805.59;4993699;28;20484;-60
2021/08/18 01:43:20;;;;;;;17.40;6.10;;;;;;;-145.01;100.00;64805.59;4993791;28;20038;-60
2021/08/18 01:45:46;;;;;;;15.02;5.53;;;;;;;-145.01;100.00;64805.59;4993562;28;20457;-60
2021/08/18 01:48:19;;;;;;;13.57;6.00;;;;;;;-145.01;100.00;64805.59;4993738;28;20077;-59
2021/08/18 01:50:45;;;;;;;18.02;6.90;;;;;;;-145.01;100.00;64805.59;4993328;28;20039;-60
2021/08/18 01:53:13;;;;;;;15.50;6.32;;;;;;;-145.01;100.00;64805.59;4993634;28;20022;-59
2021/08/18 01:55:39;;;;;;;34.28;6.45;;;;;;;-145.01;100.00;64805.59;4992240;28;20490;-60
2021/08/18 01:58:04;;;;;;;19.20;5.97;;;;;;;-145.01;100.00;64805.59;4992012;28;20034;-59
2021/08/18 02:00:30;;;;;;;12.95;5.78;;;;;;;-145.01;100.00;64805.59;4993048;28;20493;-60
2021/08/18 02:02:56;;;;;;;14.02;6.13;;;;;;;-145.01;100.00;64805.59;4993338;28;20073;-59
2021/08/18 02:05:22;;;;;;;15.65;5.70;;;;;;;-145.01;100.00;64805.59;4992048;28;20088;-60
2021/08/18 02:07:49;;;;;;;15.20;6.13;;;;;;;-145.01;100.00;64805.59;4993581;28;20144;-60
2021/08/18 02:10:15;;;;;;;12.55;5.25;;;;;;;-145.01;100.00;64805.59;4992864;28;20042;-60
2021/08/18 02:12:41;;;;;;;12.88;6.03;;;;;;;-145.01;100.00;64805.59;4993467;28;20085;-60
2021/08/18 02:15:18;;;;;;;9.88;5.57;;;;;;;-145.01;100.00;64805.59;4993020;28;20022;-60
2021/08/18 02:17:43;;;;;;;11.98;5.60;;;;;;;-145.01;100.00;64805.59;4993241;28;20085;-60
2021/08/18 02:20:11;;;;;;;20.02;5.38;;;;;;;-145.01;100.00;64805.59;4992856;28;20034;-60
2021/08/18 02:22:36;;;;;;;10.75;5.25;;;;;;;-145.01;100.00;64805.59;4993387;28;20038;-59
2021/08/18 02:25:03;;;;;;;12.75;4.95;;;;;;;-145.01;100.00;64805.59;4992919;28;20465;-60
2021/08/18 02:27:28;;;;;;;13.88;5.03;;;;;;;-145.01;100.00;64805.59;4991985;28;20022;-60
2021/08/18 02:29:54;;;;;;;8.93;4.65;;;;;;;-145.01;100.00;64805.59;4993261;28;20018;-60
2021/08/18 02:32:19;;;;;;;11.38;4.25;;;;;;;-145.01;100.00;64805.59;4992852;28;20050;-60
2021/08/18 02:34:44;;;;;;;11.90;5.57;;;;;;;-145.01;100.00;64805.59;4993195;28;20033;-60
2021/08/18 02:37:10;;;;;;;9.80;5.05;;;;;;;-145.01;100.00;64805.59;4992876;28;20045;-60
2021/08/18 02:39:36;;;;;;;8.20;4.22;;;;;;;-145.01;100.00;64805.59;4993219;28;20026;-60
2021/08/18 02:42:02;;;;;;;8.50;4.93;;;;;;;-145.01;100.00;64805.59;4991657;28;20456;-60
2021/08/18 02:44:27;;;;;;;13.02;4.85;;;;;;;-145.01;100.00;64805.59;4993326;28;20026;-59
2021/08/18 02:46:53;;;;;;;13.07;5.10;;;;;;;-145.01;100.00;64805.59;4992676;28;20031;-60
2021/08/18 02:49:19;;;;;;;19.60;5.65;;;;;;;-145.01;100.00;64805.59;4993181;28;20038;-60
2021/08/18 02:51:45;;;;;;;9.27;4.40;;;;;;;-145.01;100.00;64805.59;4992745;28;20041;-60
2021/08/18 02:54:10;;;;;;;13.95;4.45;;;;;;;-145.01;100.00;64805.59;4993301;28;20042;-60
2021/08/18 02:56:36;;;;;;;13.63;4.68;;;;;;;-145.01;100.00;64805.59;4992977;28;20046;-60
2021/08/18 02:59:01;;;;;;;10.00;4.15;;;;;;;-145.01;100.00;64805.59;4993140;28;20030;-60
2021/08/18 03:01:26;;;;;;;7.45;4.07;;;;;;;-145.01;100.00;64805.59;4992616;28;20043;-59
2021/08/18 03:03:52;;;;;;;12.45;4.13;;;;;;;-145.01;100.00;64805.59;4993104;28;20030;-60
2021/08/18 03:06:17;;;;;;;10.15;3.88;;;;;;;-145.01;100.00;64805.59;4991594;28;20416;-60
2021/08/18 03:08:43;;;;;;;10.73;4.45;;;;;;;-145.01;100.00;64805.59;4992845;28;20053;-60
2021/08/18 03:11:08;;;;;;;13.32;4.57;;;;;;;-145.01;100.00;64805.59;4977226;28;20038;-60
2021/08/18 03:13:33;;;;;;;12.63;4.47;;;;;;;-145.01;100.00;64805.59;4996652;28;20465;-59
2021/08/18 03:15:59;;;;;;;11.40;4.93;;;;;;;-145.01;100.00;64805.59;4996048;28;20049;-59
2021/08/18 03:18:24;;;;;;;13.43;5.03;;;;;;;-145.01;100.00;64805.59;4996334;28;20057;-60
2021/08/18 03:20:50;;;;;;;9.30;4.63;;;;;;;-145.01;100.00;64805.59;4996212;28;20030;-60
2021/08/18 03:23:15;;;;;;;12.00;4.10;;;;;;;-145.01;100.00;64805.59;4996447;28;20489;-60
2021/08/18 03:25:41;;;;;;;7.28;3.70;;;;;;;-145.01;100.00;64805.59;4984203;28;20035;-60
2021/08/18 03:28:06;;;;;;;12.50;4.95;;;;;;;-145.01;100.00;64805.59;4976862;28;20038;-59
2021/08/18 03:30:32;;;;;;;7.13;3.92;;;;;;;-145.01;100.00;64805.59;4976889;28;20034;-60
2021/08/18 03:32:57;;;;;;;8.35;4.05;;;;;;;-145.01;100.00;64805.59;4977009;28;20054;-60
2021/08/18 03:35:23;;;;;;;10.10;4.30;;;;;;;-145.01;100.00;64805.59;4976341;28;20035;-59
2021/08/18 03:37:48;;;;;;;7.78;4.25;;;;;;;-145.01;100.00;64805.59;4976796;28;20370;-59
2021/08/18 03:40:14;;;;;;;10.48;4.40;;;;;;;-145.01;100.00;64805.59;4976420;28;20030;-60
2021/08/18 03:42:39;;;;;;;10.48;3.75;;;;;;;-145.01;100.00;64805.59;4976535;28;20038;-59
2021/08/18 03:45:05;;;;;;;9.43;3.90;;;;;;;-145.01;100.00;64805.59;4976176;28;20101;-60
2021/08/18 03:47:30;;;;;;;7.60;3.60;;;;;;;-145.01;100.00;64805.59;4976730;28;20373;-60
2021/08/18 03:49:56;;;;;;;11.95;3.67;;;;;;;-145.01;100.00;64805.59;4976664;28;20023;-60
2021/08/18 03:52:21;;;;;;;11.75;3.70;;;;;;;-145.01;100.00;64805.59;4976050;28;20105;-59
2021/08/18 03:54:46;;;;;;;8.63;2.85;;;;;;;-145.01;100.00;64805.59;4976467;28;20362;-60
2021/08/18 03:57:12;;;;;;;6.25;3.33;;;;;;;-145.01;100.00;64805.59;4975974;28;20042;-60
2021/08/18 03:59:37;;;;;;;6.20;3.28;;;;;;;-145.01;100.00;64805.59;4976316;28;20081;-60
2021/08/18 04:02:03;;;;;;;7.55;3.88;;;;;;;-145.01;100.00;64805.59;4975839;28;20066;-60
2021/08/18 04:04:28;;;;;;;8.18;3.42;;;;;;;-145.01;100.00;64805.59;4976454;28;20082;-60
2021/08/18 04:06:54;;;;;;;7.47;4.00;;;;;;;-145.01;100.00;64805.59;5007078;28;20398;-60
2021/08/18 04:09:19;;;;;;;8.82;4.38;;;;;;;-145.01;100.00;64805.59;4976084;28;20043;-60
2021/08/18 04:11:46;;;;;;;10.88;3.80;;;;;;;-145.01;100.00;64805.59;4975751;28;20452;-59
2021/08/18 04:14:11;;;;;;;9.60;4.57;;;;;;;-145.01;100.00;64805.59;4976088;28;20034;-60
2021/08/18 04:16:37;;;;;;;8.30;4.55;;;;;;;-145.01;100.00;64805.59;4975717;28;20035;-61
2021/08/18 04:19:02;;;;;;;9.35;4.47;;;;;;;-145.01;100.00;64805.59;4976317;28;20031;-59
2021/08/18 04:21:28;;;;;;;9.45;3.63;;;;;;;-145.01;100.00;64805.59;4974866;28;20039;-60
2021/08/18 04:23:53;;;;;;;6.65;3.78;;;;;;;-145.01;100.00;64805.59;4975874;28;20041;-60
2021/08/18 04:26:19;;;;;;;6.63;3.65;;;;;;;-145.01;100.00;64805.59;4975560;28;20050;-60
2021/08/18 04:28:44;;;;;;;8.60;3.85;;;;;;;-145.01;100.00;64805.59;4974513;28;20038;-60
2021/08/18 04:31:10;;;;;;;6.93;3.35;;;;;;;-145.01;100.00;64805.59;4975466;28;20068;-60
2021/08/18 04:33:35;;;;;;;8.50;3.22;;;;;;;-145.01;100.00;64805.59;4975654;28;20031;-60
2021/08/18 04:36:00;;;;;;;7.07;3.85;;;;;;;-145.01;100.00;64805.59;4975289;28;20039;-60
2021/08/18 04:38:26;;;;;;;9.02;3.63;;;;;;;-145.01;100.00;64805.59;4974496;28;20022;-60
2021/08/18 04:40:51;;;;;;;6.60;3.38;;;;;;;-145.01;100.00;64805.59;4975300;28;20030;-60
2021/08/18 04:43:17;;;;;;;6.68;3.65;;;;;;;-145.01;100.00;64805.59;4975699;28;20359;-61
2021/08/18 04:45:44;;;;;;;9.13;3.80;;;;;;;-145.01;100.00;64805.59;4974863;28;20045;-60
2021/08/18 04:48:09;;;;;;;7.05;3.53;;;;;;;-145.01;100.00;64805.59;4990478;28;20515;-60
2021/08/18 04:50:35;;;;;;;6.95;3.63;;;;;;;-145.01;100.00;64805.59;4989821;28;20049;-60
2021/08/18 04:53:06;;;;;;;11.82;3.78;;;;;;;-145.01;100.00;64805.59;4975712;28;20493;-60
2021/08/18 04:55:31;;;;;;;10.13;3.25;;;;;;;-145.01;100.00;64805.59;4975093;28;20039;-60
2021/08/18 04:57:57;;;;;;;9.07;3.60;;;;;;;-145.01;100.00;64805.59;4975228;28;20026;-60
2021/08/18 05:00:23;;;;;;;8.90;3.67;;;;;;;-145.01;100.00;64805.59;4975170;28;20035;-60
2021/08/18 05:02:48;;;;;;;7.65;3.60;;;;;;;-145.01;100.00;64805.59;4975384;28;20049;-60
2021/08/18 05:05:13;;;;;;;7.57;3.90;;;;;;;-145.01;100.00;64805.59;4974754;28;20031;-60
2021/08/18 05:07:39;;;;;;;10.00;4.05;;;;;;;-145.01;100.00;64805.59;4975303;28;20425;-60
2021/08/18 05:10:05;;;;;;;8.90;3.67;;;;;;;-145.01;100.00;64805.59;4974588;28;20465;-60
2021/08/18 05:12:31;;;;;;;12.02;3.75;;;;;;;-145.01;100.00;64805.59;4973843;28;20402;-60
2021/08/18 05:14:56;;;;;;;11.88;3.90;;;;;;;-145.01;100.00;64805.59;4975033;28;20023;-60
2021/08/18 05:17:21;;;;;;;11.32;3.83;;;;;;;-145.01;100.00;64805.59;4976068;28;20054;-60
2021/08/18 05:19:47;;;;;;;9.18;4.00;;;;;;;-145.01;100.00;64805.59;4994521;28;20046;-60
2021/08/18 05:22:12;;;;;;;5.80;3.47;;;;;;;-145.01;100.00;64805.59;4993882;28;20428;-60
2021/08/18 05:24:38;;;;;;;8.43;3.70;;;;;;;-145.01;100.00;64805.59;4994236;28;20022;-60
2021/08/18 05:27:04;;;;;;;6.10;3.30;;;;;;;-145.01;100.00;64805.59;4993897;28;20046;-60
2021/08/18 05:29:29;;;;;;;11.00;3.58;;;;;;;-145.01;100.00;64805.59;4994215;28;20054;-60
2021/08/18 05:31:54;;;;;;;7.68;3.30;;;;;;;-145.01;100.00;64805.59;4993646;28;20034;-60
2021/08/18 05:34:20;;;;;;;4.85;2.85;;;;;;;-145.01;100.00;64805.59;4992136;28;20027;-60
2021/08/18 05:36:45;;;;;;;7.10;3.33;;;;;;;-145.01;100.00;64805.59;4993679;28;20042;-61
2021/08/18 05:39:11;;;;;;;9.65;3.20;;;;;;;-145.01;100.00;64805.59;4994141;28;20030;-61
2021/08/18 05:41:36;;;;;;;8.50;3.55;;;;;;;-145.01;100.00;64805.59;4993856;28;20058;-60
2021/08/18 05:44:02;;;;;;;7.80;3.00;;;;;;;-145.01;100.00;64805.59;4993974;28;20039;-60
2021/08/18 05:46:27;;;;;;;6.88;3.10;;;;;;;-145.01;100.00;64805.59;4992430;28;20042;-60
2021/08/18 05:48:53;;;;;;;6.40;2.95;;;;;;;-145.01;100.00;64805.59;4992906;28;20488;-62
2021/08/18 05:51:18;;;;;;;6.40;2.97;;;;;;;-145.01;100.00;64805.59;4993651;28;20085;-61
2021/08/18 05:53:49;;;;;;;6.13;2.67;;;;;;;-145.01;100.00;64805.59;4993932;28;20034;-60
2021/08/18 05:56:15;;;;;;;8.77;3.25;;;;;;;-145.01;100.00;64805.59;4993233;28;20049;-60
2021/08/18 05:58:40;;;;;;;8.68;3.38;;;;;;;-145.01;100.00;64805.59;4992537;28;20022;-59
2021/08/18 06:01:06;;;;;;;6.35;3.33;;;;;;;-145.01;100.00;64805.59;4993186;28;20038;-60
2021/08/18 06:03:31;;;;;;;4.97;3.05;;;;;;;-145.01;100.00;64805.59;4993591;28;20042;-59
2021/08/18 06:05:57;;;;;;;5.28;2.72;;;;;;;-145.01;100.00;64805.59;4993375;28;20038;-60
2021/08/18 06:08:23;;;;;;;5.32;2.83;;;;;;;-145.01;100.00;64805.59;4993617;28;20030;-60
2021/08/18 06:10:48;;;;;;;6.65;3.03;;;;;;;-145.01;100.00;64805.59;4993188;28;20113;-60
2021/08/18 06:13:14;;;;;;;5.68;3.13;;;;;;;-145.01;100.00;64805.59;4992225;28;20469;-59
2021/08/18 06:15:39;;;;;;;5.50;2.70;;;;;;;-145.01;100.00;64805.59;4992959;28;20030;-60
2021/08/18 06:18:05;;;;;;;9.50;2.67;;;;;;;-145.01;100.00;64805.59;4993521;28;20035;-62
2021/08/18 06:20:30;;;;;;;4.32;2.70;;;;;;;-145.01;100.00;64805.59;4993123;28;20088;-61
2021/08/18 06:22:55;;;;;;;5.18;2.60;;;;;;;-145.01;100.00;64805.59;4993312;28;20441;-59
2021/08/18 06:25:21;;;;;;;6.43;2.70;;;;;;;-145.01;100.00;64805.59;4993043;28;20499;-61
2021/08/18 06:27:46;;;;;;;6.57;2.67;;;;;;;-145.01;100.00;64805.59;4993649;28;20081;-60
2021/08/18 06:30:12;;;;;;;7.70;2.63;;;;;;;-145.01;100.00;64805.59;4992838;28;20376;-60
2021/08/18 06:32:38;;;;;;;6.03;2.60;;;;;;;-145.01;100.00;64805.59;4975955;28;20027;-60
2021/08/18 06:35:04;;;;;;;5.10;2.30;;;;;;;-145.01;100.00;64805.59;4992839;28;20026;-60
2021/08/18 06:37:29;;;;;;;6.95;2.30;;;;;;;-145.01;100.00;64805.59;4992066;28;20054;-60
2021/08/18 06:39:55;;;;;;;5.18;2.15;;;;;;;-145.01;100.00;64805.59;4993200;28;20113;-60
2021/08/18 06:42:21;;;;;;;7.32;2.20;;;;;;;-145.01;100.00;64805.59;4992874;28;20535;-60
2021/08/18 06:44:48;;;;;;;5.95;2.75;;;;;;;-145.01;100.00;64805.59;4995212;28;20389;-61
2021/08/18 06:47:14;;;;;;;5.95;2.20;;;;;;;-145.01;100.00;64805.59;4995653;28;20125;-61
2021/08/18 06:49:39;;;;;;;3.40;2.38;;;;;;;-145.01;100.00;64805.59;4997141;28;20118;-59
2021/08/18 06:52:05;;;;;;;5.35;1.80;;;;;;;-145.01;100.00;64805.59;4996715;28;20041;-59
2021/08/18 06:54:30;;;;;;;5.70;2.00;;;;;;;-145.01;100.00;64805.59;4997204;28;20026;-59
2021/08/18 06:56:57;;;;;;;4.15;1.70;;;;;;;-145.01;100.00;64805.59;4996725;28;20397;-59
2021/08/18 06:59:22;;;;;;;2.92;1.95;;;;;;;-145.01;100.00;64805.59;4995573;28;20105;-59
2021/08/18 07:01:48;;;;;;;2.97;1.75;;;;;;;-145.01;100.00;64805.59;4996525;28;20050;-59
2021/08/18 07:04:13;;;;;;;4.03;2.13;;;;;;;-145.01;100.00;64805.59;4996908;28;20413;-59
2021/08/18 07:06:39;;;;;;;2.92;1.85;;;;;;;-145.01;100.00;64805.59;4996554;28;20039;-60
2021/08/18 07:09:04;;;;;;;7.57;2.20;;;;;;;-145.01;100.00;64805.59;4996617;28;20108;-60
2021/08/18 07:11:29;;;;;;;3.00;1.90;;;;;;;-145.01;100.00;64805.59;4995095;28;20405;-61
2021/08/18 07:14:01;;;;;;;5.05;1.80;;;;;;;-145.01;100.00;64805.59;4995688;28;20500;-59
2021/08/18 07:16:30;;;;;;;3.40;2.00;;;;;;;-145.01;100.00;64805.59;4996515;28;20074;-61
2021/08/18 07:18:56;;;;;;;4.47;2.20;;;;;;;-145.01;100.00;64805.59;4996701;28;20109;-61
2021/08/18 07:21:21;;;;;;;3.20;1.92;;;;;;;-145.01;100.00;64805.59;4994857;28;20116;-61
2021/08/18 07:23:48;;;;;;;3.55;1.80;;;;;;;-145.01;100.00;64805.59;4996500;28;20117;-59
2021/08/18 07:26:13;;;;;;;5.50;2.15;;;;;;;-145.01;100.00;64805.59;4994352;28;20065;-62
2021/08/18 07:28:38;;;;;;;3.55;2.20;;;;;;;-145.01;100.00;64805.59;4996752;28;20481;-61
2021/08/18 07:31:04;;;;;;;5.15;2.33;;;;;;;-145.01;100.00;64805.59;4994998;28;20445;-62
2021/08/18 07:33:29;;;;;;;4.00;2.20;;;;;;;-145.01;100.00;64805.59;4996458;28;20041;-61
2021/08/18 07:35:55;;;;;;;6.22;2.20;;;;;;;-145.01;100.00;64805.59;4994623;28;20395;-59
2021/08/18 07:38:20;;;;;;;4.00;2.13;;;;;;;-145.01;100.00;64805.59;4996290;28;20101;-59
2021/08/18 07:40:47;;;;;;;4.80;2.13;;;;;;;-145.01;100.00;64805.59;4995975;28;20432;-62
2021/08/18 07:43:13;;;;;;;3.97;2.13;;;;;;;-145.01;100.00;64805.59;4996015;28;20539;-59
2021/08/18 07:45:38;;;;;;;4.32;2.30;;;;;;;-145.01;100.00;64805.59;4994717;28;20393;-59
2021/08/18 07:48:04;;;;;;;4.88;2.33;;;;;;;-145.01;100.00;64805.59;4996262;28;20022;-61
2021/08/18 07:50:30;;;;;;;5.40;2.28;;;;;;;-145.01;100.00;64805.59;4994965;28;20038;-60
2021/08/18 07:52:55;;;;;;;4.60;2.00;;;;;;;-145.01;100.00;64805.59;4995926;28;20030;-60
2021/08/18 07:55:21;;;;;;;5.55;2.30;;;;;;;-145.01;100.00;64805.59;4995308;28;20042;-60
2021/08/18 07:57:46;;;;;;;3.85;2.40;;;;;;;-145.01;100.00;64805.59;4995820;28;20428;-61
2021/08/18 08:00:12;;;;;;;6.32;2.50;;;;;;;-145.01;100.00;64805.59;4995466;28;20018;-59
2021/08/18 08:02:41;;;;;;;4.32;2.78;;;;;;;-145.01;100.00;64805.59;4995769;28;20084;-61
2021/08/18 08:05:07;;;;;;;11.23;3.38;;;;;;;-145.01;100.00;64805.59;4994413;28;20092;-60
2021/08/18 08:07:32;;;;;;;14.35;3.38;;;;;;;-145.01;100.00;64805.59;4995714;28;20019;-60
2021/08/18 08:09:58;;;;;;;14.60;3.03;;;;;;;-145.01;100.00;64805.59;4994659;28;20046;-62
2021/08/18 08:12:23;;;;;;;11.10;3.15;;;;;;;-145.01;100.00;64805.59;4995414;28;20314;-60
2021/08/18 08:14:49;;;;;;;11.10;3.40;;;;;;;-145.01;100.00;64805.59;4995751;28;20413;-61
2021/08/18 08:17:14;;;;;;;5.25;2.75;;;;;;;-145.01;100.00;64805.59;4995314;28;20384;-60
2021/08/18 08:19:39;;;;;;;6.75;2.63;;;;;;;-145.01;100.00;64805.59;4995222;28;20392;-60
2021/08/18 08:22:05;;;;;;;9.38;2.35;;;;;;;-145.01;100.00;64805.59;4993049;28;20042;-62
2021/08/18 08:24:31;;;;;;;8.35;2.63;;;;;;;-145.01;100.00;64805.59;4994178;28;20171;-63
2021/08/18 08:26:56;;;;;;;10.35;2.50;;;;;;;-145.01;100.00;64805.59;4995148;28;20039;-65
2021/08/18 08:29:22;;;;;;;8.52;2.83;;;;;;;-145.01;100.00;64805.59;4982312;28;20043;-63
2021/08/18 08:31:47;;;;;;;6.05;2.50;;;;;;;-145.01;100.00;64805.59;4974795;28;20075;-62
2021/08/18 08:34:13;;;;;;;3.67;2.08;;;;;;;-145.01;100.00;64805.59;4975548;28;20358;-62
2021/08/18 08:36:39;;;;;;;8.82;3.03;;;;;;;-145.01;100.00;64805.59;4974107;28;20398;-62
2021/08/18 08:39:04;;;;;;;4.93;2.45;;;;;;;-145.01;100.00;64805.59;4974466;28;20041;-63
2021/08/18 08:41:31;;;;;;;6.60;2.42;;;;;;;-145.01;100.00;64805.59;4973872;28;20509;-63
2021/08/18 08:43:57;;;;;;;5.07;2.17;;;;;;;-145.01;100.00;64805.59;4974366;28;20026;-62
2021/08/18 08:46:22;;;;;;;4.97;2.38;;;;;;;-145.01;100.00;64805.59;4981475;28;20093;-62
2021/08/18 08:48:48;;;;;;;4.38;2.25;;;;;;;-145.01;100.00;64805.59;5006981;28;20355;-62
2021/08/18 08:51:14;;;;;;;5.55;2.20;;;;;;;-145.01;100.00;64805.59;4989931;28;20130;-63
2021/08/18 08:53:39;;;;;;;13.23;3.20;;;;;;;-145.01;100.00;64805.59;4990631;28;20034;-62
2021/08/18 08:56:07;;;;;;;6.88;2.75;;;;;;;-145.01;100.00;64805.59;4975121;28;20042;-62
2021/08/18 08:58:32;;;;;;;4.07;2.50;;;;;;;-145.01;100.00;64805.59;4975194;28;20027;-63
2021/08/18 09:00:58;;;;;;;5.22;2.83;;;;;;;-145.01;100.00;64805.59;4974838;28;20039;-64
2021/08/18 09:03:26;;;;;;;6.13;2.90;;;;;;;-145.01;100.00;64805.59;4975140;28;20027;-62
2021/08/18 09:05:53;;;;;;;5.63;2.85;;;;;;;-145.01;100.00;64805.59;4973705;28;20038;-63
2021/08/18 09:08:20;;;;;;;6.70;3.10;;;;;;;-145.01;100.00;64805.59;4989579;28;20023;-66
2021/08/18 09:11:05;;;;;;;7.97;3.25;;;;;;;-145.01;100.00;64805.59;4974739;28;20552;-62
2021/08/18 09:13:49;;;;;;;7.35;3.42;;;;;;;-145.01;100.00;64805.59;4975305;28;20031;-62
2021/08/18 09:16:21;;;;;;;7.45;3.08;;;;;;;-145.01;100.00;64805.59;4973497;28;20077;-63
2021/08/18 09:18:49;;;;;;;6.63;3.10;;;;;;;-145.01;100.00;64805.59;5005794;28;20023;-63
2021/08/18 09:21:28;;;;;;;5.35;3.00;;;;;;;-145.01;100.00;64805.59;5005648;28;20057;-62
2021/08/18 09:24:12;;;;;;;7.15;3.22;;;;;;;-145.01;100.00;64805.59;4975111;28;20027;-62
2021/08/18 09:26:38;;;;;;;5.95;3.13;;;;;;;-145.01;100.00;64805.59;4974466;28;20035;-62
2021/08/18 09:29:03;;;;;;;14.50;3.50;;;;;;;-145.01;100.00;64805.59;4974953;28;20074;-61
2021/08/18 09:31:29;;;;;;;10.65;3.25;;;;;;;-145.01;100.00;64805.59;4972928;28;20043;-61
2021/08/18 09:33:55;;;;;;;11.75;3.67;;;;;;;-145.01;100.00;64805.59;4991949;28;20113;-61
2021/08/18 09:36:25;;;;;;;10.70;3.42;;;;;;;-145.01;100.00;64805.59;4993588;28;20043;-61
2021/08/18 09:38:53;;;;;;;8.38;3.20;;;;;;;-145.01;100.00;64805.59;4994390;28;20026;-60
2021/08/18 09:41:18;;;;;;;4.93;2.88;;;;;;;-145.01;100.00;64805.59;4993697;28;20410;-61
2021/08/18 09:43:44;;;;;;;10.93;3.17;;;;;;;-145.01;100.00;64805.59;4994050;28;20066;-61
2021/08/18 09:46:09;;;;;;;4.63;3.28;;;;;;;-145.01;100.00;64805.59;4976359;28;20133;-60
2021/08/18 09:48:37;;;;;;;8.63;3.80;;;;;;;-145.01;100.00;64805.59;4994050;28;20026;-60
2021/08/18 09:51:04;;;;;;;8.02;3.83;;;;;;;-145.01;100.00;64805.59;4993675;28;20045;-61
2021/08/18 09:53:32;;;;;;;5.20;3.30;;;;;;;-145.01;100.00;64805.59;4993992;28;20026;-60
2021/08/18 09:56:03;;;;;;;13.52;4.80;;;;;;;-145.01;100.00;64805.59;4993409;28;20034;-61
2021/08/18 09:58:32;;;;;;;8.82;4.13;;;;;;;-145.01;100.00;64805.59;4993951;28;20054;-61
2021/08/18 10:00:59;;;;;;;17.55;4.72;;;;;;;-145.01;100.00;64805.59;4993443;28;20125;-60
2021/08/18 10:03:25;;;;;;;9.40;4.45;;;;;;;-145.01;100.00;64805.59;4993700;28;20033;-61
2021/08/18 10:05:51;;;;;;;8.75;4.35;;;;;;;-145.01;100.00;64805.59;4993343;28;20034;-60
2021/08/18 10:08:17;;;;;;;8.20;3.95;;;;;;;-145.01;100.00;64805.59;4976039;28;20104;-61
2021/08/18 10:10:42;;;;;;;7.45;4.55;;;;;;;-145.01;100.00;64805.59;4993273;28;20035;-60
2021/08/18 10:13:08;;;;;;;8.73;4.43;;;;;;;-145.01;100.00;64805.59;4993583;28;20026;-61
2021/08/18 10:15:34;;;;;;;7.80;4.63;;;;;;;-145.01;100.00;64805.59;4992082;28;20093;-61
2021/08/18 10:17:59;;;;;;;9.32;5.18;;;;;;;-145.01;100.00;64805.59;4993504;28;20045;-61
2021/08/18 10:20:25;;;;;;;10.30;4.70;;;;;;;-145.01;100.00;64805.59;4992681;28;20035;-60
2021/08/18 10:23:00;;;;;;;6.55;4.30;;;;;;;-145.01;100.00;64805.59;4993410;28;20034;-65
2021/08/18 10:25:35;;;;;;;8.40;5.13;;;;;;;-145.01;100.00;64805.59;4991825;28;20041;-60
2021/08/18 10:28:05;;;;;;;10.32;5.20;;;;;;;-145.01;100.00;64805.59;4990865;28;20037;-60
2021/08/18 10:30:30;;;;;;;8.27;4.50;;;;;;;-145.01;100.00;64805.59;4990996;28;20500;-60
2021/08/18 10:32:56;;;;;;;8.70;4.80;;;;;;;-145.01;100.00;64805.59;4992192;28;20026;-60
2021/08/18 10:35:37;;;;;;;7.82;5.25;;;;;;;-145.01;100.00;64805.59;4992189;28;20030;-61
2021/08/18 10:38:23;;;;;;;9.30;5.35;;;;;;;-145.01;100.00;64805.59;4993037;28;20030;-60
2021/08/18 10:40:49;;;;;;;8.13;4.35;;;;;;;-145.01;100.00;64805.59;4992572;28;20425;-60
2021/08/18 10:43:50;;;;;;;7.90;4.40;;;;;;;-145.01;100.00;64805.59;4993028;28;20042;-60
2021/08/18 10:46:15;;;;;;;7.35;3.83;;;;;;;-145.01;100.00;64805.59;4991461;28;20509;-60
2021/08/18 10:49:07;;;;;;;8.13;4.20;;;;;;;-145.01;100.00;64805.59;4991981;28;20023;-60
2021/08/18 10:51:42;;;;;;;7.13;3.95;;;;;;;-145.01;100.00;64805.59;4990574;28;20046;-61
2021/08/18 10:54:26;;;;;;;9.10;3.58;;;;;;;-145.01;100.00;64805.59;4993189;28;20029;-61
2021/08/18 10:56:57;;;;;;;6.30;3.88;;;;;;;-145.01;100.00;64805.59;4992928;28;20038;-60
2021/08/18 10:59:49;;;;;;;11.93;3.58;;;;;;;-145.01;100.00;64805.59;4992246;28;20031;-60
2021/08/18 11:02:52;;;;;;;5.47;3.15;;;;;;;-145.01;100.00;64805.59;4992621;28;20042;-60
2021/08/18 11:05:21;;;;;;;6.80;3.10;;;;;;;-145.01;100.00;64805.59;4992991;28;20030;-61